sensor_id;sensor_type;location;lat;lon;timestamp;pressure;altitude;pressure_sealevel;temperature;humidity
29215;BME280;16252;49.816;7.964;2023-05-14T00:01:42;100136.38;;;15.42;49.53
29215;BME280;16252;49.816;7.964;2023-05-14T00:04:07;100124.47;;;15.35;49.55
29215;BME280;16252;49.816;7.964;2023-05-14T00:06:32;100161.06;;;15.47;49.63
29215;BME280;16252;49.816;7.964;2023-05-14T00:08:58;100142.75;;;15.31;49.80
29215;BME280;16252;49.816;7.964;2023-05-14T00:11:23;100146.59;;;15.29;49.89
29215;BME280;16252;49.816;7.964;2023-05-14T00:13:49;100130.88;;;15.14;50.08
29215;BME280;16252;49.816;7.964;2023-05-14T00:16:14;100134.72;;;15.12;50.06
29215;BME280;16252;49.816;7.964;2023-05-14T00:18:40;100144.78;;;15.10;50.17
29215;BME280;16252;49.816;7.964;2023-05-14T00:21:05;100125.09;;;15.00;50.40
29215;BME280;16252;49.816;7.964;2023-05-14T00:23:31;100134.44;;;15.05;50.21
29215;BME280;16252;49.816;7.964;2023-05-14T00:25:56;100118.25;;;14.95;50.50
29215;BME280;16252;49.816;7.964;2023-05-14T00:28:21;100126.63;;;14.92;50.32
29215;BME280;16252;49.816;7.964;2023-05-14T00:30:47;100115.44;;;14.97;50.68
29215;BME280;16252;49.816;7.964;2023-05-14T00:33:12;100124.50;;;14.96;50.71
29215;BME280;16252;49.816;7.964;2023-05-14T00:35:37;100136.69;;;15.00;50.34
29215;BME280;16252;49.816;7.964;2023-05-14T00:38:03;100147.63;;;15.08;50.60
29215;BME280;16252;49.816;7.964;2023-05-14T00:40:28;100152.16;;;15.08;50.71
29215;BME280;16252;49.816;7.964;2023-05-14T00:42:54;100136.84;;;14.99;50.79
29215;BME280;16252;49.816;7.964;2023-05-14T00:45:20;100128.19;;;14.95;50.83
29215;BME280;16252;49.816;7.964;2023-05-14T00:47:46;100140.97;;;15.03;50.99
29215;BME280;16252;49.816;7.964;2023-05-14T00:50:12;100085.81;;;14.68;50.99
29215;BME280;16252;49.816;7.964;2023-05-14T00:52:39;100144.66;;;15.02;50.96
29215;BME280;16252;49.816;7.964;2023-05-14T00:55:06;100113.88;;;14.85;51.36
29215;BME280;16252;49.816;7.964;2023-05-14T00:57:33;100067.38;;;14.54;51.30
29215;BME280;16252;49.816;7.964;2023-05-14T00:59:58;100111.47;;;14.82;51.18
29215;BME280;16252;49.816;7.964;2023-05-14T01:02:24;100128.63;;;14.90;51.16
29215;BME280;16252;49.816;7.964;2023-05-14T01:04:50;100137.13;;;14.95;51.11
29215;BME280;16252;49.816;7.964;2023-05-14T01:07:27;100080.56;;;14.66;51.26
29215;BME280;16252;49.816;7.964;2023-05-14T01:09:59;100102.13;;;14.66;51.11
29215;BME280;16252;49.816;7.964;2023-05-14T01:12:33;100130.19;;;14.93;51.31
29215;BME280;16252;49.816;7.964;2023-05-14T01:15:10;100117.00;;;14.80;51.08
29215;BME280;16252;49.816;7.964;2023-05-14T01:17:44;100132.44;;;14.88;51.28
29215;BME280;16252;49.816;7.964;2023-05-14T01:20:10;100113.44;;;14.70;51.00
29215;BME280;16252;49.816;7.964;2023-05-14T01:22:36;100132.44;;;14.78;51.24
29215;BME280;16252;49.816;7.964;2023-05-14T01:25:02;100095.72;;;14.58;51.00
29215;BME280;16252;49.816;7.964;2023-05-14T01:30:48;100119.84;;;14.79;51.30
29215;BME280;16252;49.816;7.964;2023-05-14T01:33:16;100124.63;;;14.65;51.46
29215;BME280;16252;49.816;7.964;2023-05-14T01:35:43;100102.19;;;14.45;51.65
29215;BME280;16252;49.816;7.964;2023-05-14T01:38:10;100118.25;;;14.57;51.70
29215;BME280;16252;49.816;7.964;2023-05-14T01:40:36;100109.13;;;14.38;51.69
29215;BME280;16252;49.816;7.964;2023-05-14T01:43:03;100136.94;;;14.48;51.82
29215;BME280;16252;49.816;7.964;2023-05-14T01:45:29;100066.56;;;14.03;51.82
29215;BME280;16252;49.816;7.964;2023-05-14T01:47:54;100106.69;;;14.25;51.95
29215;BME280;16252;49.816;7.964;2023-05-14T01:50:20;100094.50;;;14.21;51.97
29215;BME280;16252;49.816;7.964;2023-05-14T01:52:45;100093.50;;;14.22;52.01
29215;BME280;16252;49.816;7.964;2023-05-14T01:55:12;100109.38;;;14.25;51.95
29215;BME280;16252;49.816;7.964;2023-05-14T01:57:38;100083.00;;;14.09;52.04
29215;BME280;16252;49.816;7.964;2023-05-14T02:00:03;100096.31;;;14.11;52.09
29215;BME280;16252;49.816;7.964;2023-05-14T02:02:29;100101.13;;;14.17;52.12
29215;BME280;16252;49.816;7.964;2023-05-14T02:04:54;100110.06;;;14.18;52.27
29215;BME280;16252;49.816;7.964;2023-05-14T02:07:20;100101.41;;;14.14;52.14
29215;BME280;16252;49.816;7.964;2023-05-14T02:09:45;100096.84;;;14.05;52.14
29215;BME280;16252;49.816;7.964;2023-05-14T02:12:10;100087.66;;;13.98;52.46
29215;BME280;16252;49.816;7.964;2023-05-14T02:14:36;100112.59;;;14.09;52.36
29215;BME280;16252;49.816;7.964;2023-05-14T02:17:01;100121.94;;;14.15;52.35
29215;BME280;16252;49.816;7.964;2023-05-14T02:19:27;100104.81;;;14.06;52.62
29215;BME280;16252;49.816;7.964;2023-05-14T02:21:53;100063.69;;;13.85;52.45
29215;BME280;16252;49.816;7.964;2023-05-14T02:24:18;100067.34;;;13.84;52.51
29215;BME280;16252;49.816;7.964;2023-05-14T02:26:43;100064.22;;;13.79;52.58
29215;BME280;16252;49.816;7.964;2023-05-14T02:29:08;100096.84;;;14.05;52.60
29215;BME280;16252;49.816;7.964;2023-05-14T02:31:34;100039.53;;;13.64;52.53
29215;BME280;16252;49.816;7.964;2023-05-14T02:34:04;100088.78;;;13.95;52.93
29215;BME280;16252;49.816;7.964;2023-05-14T02:36:29;100086.63;;;13.89;52.61
29215;BME280;16252;49.816;7.964;2023-05-14T02:38:57;100099.38;;;13.97;52.75
29215;BME280;16252;49.816;7.964;2023-05-14T02:41:22;100086.56;;;13.79;52.94
29215;BME280;16252;49.816;7.964;2023-05-14T02:43:48;100072.69;;;13.74;52.59
29215;BME280;16252;49.816;7.964;2023-05-14T02:46:13;100069.44;;;13.71;51.89
29215;BME280;16252;49.816;7.964;2023-05-14T02:48:38;100076.22;;;13.75;52.16
29215;BME280;16252;49.816;7.964;2023-05-14T02:51:03;100068.84;;;13.67;51.94
29215;BME280;16252;49.816;7.964;2023-05-14T02:53:29;100082.47;;;13.75;51.86
29215;BME280;16252;49.816;7.964;2023-05-14T02:55:54;100084.16;;;13.76;51.88
29215;BME280;16252;49.816;7.964;2023-05-14T02:58:20;100067.50;;;13.52;52.05
29215;BME280;16252;49.816;7.964;2023-05-14T03:00:45;100099.53;;;13.64;51.89
29215;BME280;16252;49.816;7.964;2023-05-14T03:03:10;100108.03;;;13.70;51.78
29215;BME280;16252;49.816;7.964;2023-05-14T03:05:35;100099.09;;;13.59;51.95
29215;BME280;16252;49.816;7.964;2023-05-14T03:08:01;100081.94;;;13.51;51.78
29215;BME280;16252;49.816;7.964;2023-05-14T03:10:26;100099.75;;;13.52;52.03
29215;BME280;16252;49.816;7.964;2023-05-14T03:12:51;100069.09;;;13.33;52.16
29215;BME280;16252;49.816;7.964;2023-05-14T03:15:17;100080.97;;;13.31;52.30
29215;BME280;16252;49.816;7.964;2023-05-14T03:17:42;100080.41;;;13.27;52.09
29215;BME280;16252;49.816;7.964;2023-05-14T03:20:08;100065.88;;;13.18;52.17
29215;BME280;16252;49.816;7.964;2023-05-14T03:22:33;100091.34;;;13.24;52.29
29215;BME280;16252;49.816;7.964;2023-05-14T03:24:58;100088.81;;;13.22;52.44
29215;BME280;16252;49.816;7.964;2023-05-14T03:27:24;100079.00;;;13.12;52.48
29215;BME280;16252;49.816;7.964;2023-05-14T03:29:49;100107.28;;;13.27;52.59
29215;BME280;16252;49.816;7.964;2023-05-14T03:32:16;100084.84;;;13.17;52.71
29215;BME280;16252;49.816;7.964;2023-05-14T03:34:42;100088.47;;;13.16;52.23
29215;BME280;16252;49.816;7.964;2023-05-14T03:37:08;100075.25;;;13.03;52.19
29215;BME280;16252;49.816;7.964;2023-05-14T03:39:34;100068.03;;;13.04;52.38
29215;BME280;16252;49.816;7.964;2023-05-14T03:42:00;100087.06;;;13.12;52.13
29215;BME280;16252;49.816;7.964;2023-05-14T03:44:25;100077.22;;;13.01;52.25
29215;BME280;16252;49.816;7.964;2023-05-14T03:46:50;100079.06;;;13.00;52.36
29215;BME280;16252;49.816;7.964;2023-05-14T03:49:16;100079.06;;;13.00;52.49
29215;BME280;16252;49.816;7.964;2023-05-14T03:51:41;100078.13;;;12.90;52.40
29215;BME280;16252;49.816;7.964;2023-05-14T03:54:06;100079.84;;;12.91;52.68
29215;BME280;16252;49.816;7.964;2023-05-14T03:56:32;100073.88;;;12.88;52.23
29215;BME280;16252;49.816;7.964;2023-05-14T03:58:57;100073.88;;;12.88;52.44
29215;BME280;16252;49.816;7.964;2023-05-14T04:01:22;100073.88;;;12.88;52.20
29215;BME280;16252;49.816;7.964;2023-05-14T04:03:47;100081.94;;;12.88;52.29
29215;BME280;16252;49.816;7.964;2023-05-14T04:06:13;100097.13;;;12.98;52.74
29215;BME280;16252;49.816;7.964;2023-05-14T04:08:38;100055.66;;;12.70;52.46
29215;BME280;16252;49.816;7.964;2023-05-14T04:11:03;100038.34;;;12.63;52.38
29215;BME280;16252;49.816;7.964;2023-05-14T04:13:29;100069.28;;;12.78;52.78
29215;BME280;16252;49.816;7.964;2023-05-14T04:15:54;100079.50;;;12.85;52.92
29215;BME280;16252;49.816;7.964;2023-05-14T04:18:19;100076.22;;;12.81;52.88
29215;BME280;16252;49.816;7.964;2023-05-14T04:20:45;100068.22;;;12.70;52.86
29215;BME280;16252;49.816;7.964;2023-05-14T04:23:10;100085.84;;;12.84;53.15
29215;BME280;16252;49.816;7.964;2023-05-14T04:25:35;100070.25;;;12.77;53.23
29215;BME280;16252;49.816;7.964;2023-05-14T04:28:01;100088.28;;;12.87;53.39
29215;BME280;16252;49.816;7.964;2023-05-14T04:30:26;100087.91;;;12.91;53.37
29215;BME280;16252;49.816;7.964;2023-05-14T04:32:51;100078.13;;;12.90;53.52
29215;BME280;16252;49.816;7.964;2023-05-14T04:35:16;100076.06;;;12.94;53.25
29215;BME280;16252;49.816;7.964;2023-05-14T04:37:42;100082.72;;;12.99;53.23
29215;BME280;16252;49.816;7.964;2023-05-14T04:40:08;100085.50;;;13.09;53.31
29215;BME280;16252;49.816;7.964;2023-05-14T04:42:35;100060.78;;;12.94;53.26
29215;BME280;16252;49.816;7.964;2023-05-14T04:45:00;100092.16;;;13.15;53.47
29215;BME280;16252;49.816;7.964;2023-05-14T04:47:26;100093.59;;;13.19;53.66
29215;BME280;16252;49.816;7.964;2023-05-14T04:49:51;100071.19;;;13.09;53.71
29215;BME280;16252;49.816;7.964;2023-05-14T04:52:16;100107.00;;;13.30;53.77
29215;BME280;16252;49.816;7.964;2023-05-14T04:54:42;100103.31;;;13.31;53.76
29215;BME280;16252;49.816;7.964;2023-05-14T04:57:07;100072.06;;;13.09;53.97
29215;BME280;16252;49.816;7.964;2023-05-14T04:59:32;100087.91;;;13.33;53.97
29215;BME280;16252;49.816;7.964;2023-05-14T05:01:57;100082.44;;;13.23;54.00
29215;BME280;16252;49.816;7.964;2023-05-14T05:04:23;100092.00;;;13.28;54.05
29215;BME280;16252;49.816;7.964;2023-05-14T05:06:49;100073.53;;;13.23;54.16
29215;BME280;16252;49.816;7.964;2023-05-14T05:09:15;100094.13;;;13.34;54.34
29215;BME280;16252;49.816;7.964;2023-05-14T05:11:41;100114.91;;;13.53;54.17
29215;BME280;16252;49.816;7.964;2023-05-14T05:14:06;100082.28;;;13.36;54.09
29215;BME280;16252;49.816;7.964;2023-05-14T05:16:31;100092.34;;;13.44;54.48
29215;BME280;16252;49.816;7.964;2023-05-14T05:18:57;100087.59;;;13.48;54.46
29215;BME280;16252;49.816;7.964;2023-05-14T05:21:22;100099.34;;;13.56;54.25
29215;BME280;16252;49.816;7.964;2023-05-14T05:23:47;100097.50;;;13.57;54.32
29215;BME280;16252;49.816;7.964;2023-05-14T05:26:13;100111.16;;;13.65;54.74
29215;BME280;16252;49.816;7.964;2023-05-14T05:28:38;100112.63;;;13.79;54.31
29215;BME280;16252;49.816;7.964;2023-05-14T05:31:03;100113.75;;;13.76;54.68
29215;BME280;16252;49.816;7.964;2023-05-14T05:33:29;100102.59;;;13.81;54.53
29215;BME280;16252;49.816;7.964;2023-05-14T05:35:54;100099.63;;;13.84;54.67
29215;BME280;16252;49.816;7.964;2023-05-14T05:38:20;100086.34;;;13.82;54.74
29215;BME280;16252;49.816;7.964;2023-05-14T05:40:45;100080.53;;;13.87;54.95
29215;BME280;16252;49.816;7.964;2023-05-14T05:43:10;100110.75;;;14.10;54.99
29215;BME280;16252;49.816;7.964;2023-05-14T05:45:38;100107.38;;;14.08;54.60
29215;BME280;16252;49.816;7.964;2023-05-14T05:48:03;100073.75;;;13.93;54.97
29215;BME280;16252;49.816;7.964;2023-05-14T05:50:29;100094.59;;;14.10;54.82
29215;BME280;16252;49.816;7.964;2023-05-14T05:52:55;100088.97;;;14.13;55.01
29215;BME280;16252;49.816;7.964;2023-05-14T05:55:23;100093.06;;;14.17;55.00
29215;BME280;16252;49.816;7.964;2023-05-14T05:57:48;100121.72;;;14.38;55.15
29215;BME280;16252;49.816;7.964;2023-05-14T06:00:13;100111.13;;;14.36;55.18
29215;BME280;16252;49.816;7.964;2023-05-14T06:02:42;100097.94;;;14.43;55.43
29215;BME280;16252;49.816;7.964;2023-05-14T06:05:09;100117.41;;;14.56;55.28
29215;BME280;16252;49.816;7.964;2023-05-14T06:07:35;100096.53;;;14.48;55.16
29215;BME280;16252;49.816;7.964;2023-05-14T06:10:00;100091.19;;;14.58;55.68
29215;BME280;16252;49.816;7.964;2023-05-14T06:12:26;100082.97;;;14.60;55.69
29215;BME280;16252;49.816;7.964;2023-05-14T06:14:53;100113.75;;;14.86;55.56
29215;BME280;16252;49.816;7.964;2023-05-14T06:17:19;100087.94;;;14.74;55.10
29215;BME280;16252;49.816;7.964;2023-05-14T06:19:45;100114.72;;;14.95;55.15
29215;BME280;16252;49.816;7.964;2023-05-14T06:22:10;100110.59;;;15.01;55.42
29215;BME280;16252;49.816;7.964;2023-05-14T06:24:35;100095.31;;;14.91;55.29
29215;BME280;16252;49.816;7.964;2023-05-14T06:27:00;100077.44;;;14.90;55.51
29215;BME280;16252;49.816;7.964;2023-05-14T06:29:26;100108.31;;;15.15;55.46
29215;BME280;16252;49.816;7.964;2023-05-14T06:31:51;100085.94;;;15.05;55.82
29215;BME280;16252;49.816;7.964;2023-05-14T06:34:16;100104.34;;;15.20;55.71
29215;BME280;16252;49.816;7.964;2023-05-14T06:36:41;100098.09;;;15.19;55.92
29215;BME280;16252;49.816;7.964;2023-05-14T06:39:07;100114.09;;;15.40;56.06
29215;BME280;16252;49.816;7.964;2023-05-14T06:41:32;100070.59;;;15.25;55.86
29215;BME280;16252;49.816;7.964;2023-05-14T06:43:57;100092.25;;;15.43;55.93
29215;BME280;16252;49.816;7.964;2023-05-14T06:46:23;100123.25;;;15.57;55.93
29215;BME280;16252;49.816;7.964;2023-05-14T06:48:48;100129.25;;;15.70;56.00
29215;BME280;16252;49.816;7.964;2023-05-14T06:51:13;100103.25;;;15.69;55.59
29215;BME280;16252;49.816;7.964;2023-05-14T06:53:39;100105.81;;;15.71;56.07
29215;BME280;16252;49.816;7.964;2023-05-14T06:56:05;100106.00;;;15.87;55.82
29215;BME280;16252;49.816;7.964;2023-05-14T06:58:30;100104.13;;;15.97;56.03
29215;BME280;16252;49.816;7.964;2023-05-14T07:00:57;100119.06;;;16.19;56.07
29215;BME280;16252;49.816;7.964;2023-05-14T07:03:22;100082.34;;;16.09;55.71
29215;BME280;16252;49.816;7.964;2023-05-14T07:05:47;100082.13;;;16.20;55.47
29215;BME280;16252;49.816;7.964;2023-05-14T07:08:13;100112.38;;;16.51;55.56
29215;BME280;16252;49.816;7.964;2023-05-14T07:10:38;100089.22;;;16.49;55.33
29215;BME280;16252;49.816;7.964;2023-05-14T07:13:04;100103.56;;;16.67;55.28
29215;BME280;16252;49.816;7.964;2023-05-14T07:15:29;100089.91;;;16.68;55.68
29215;BME280;16252;49.816;7.964;2023-05-14T07:17:54;100099.50;;;16.81;55.46
29215;BME280;16252;49.816;7.964;2023-05-14T07:20:20;100086.16;;;16.79;55.27
29215;BME280;16252;49.816;7.964;2023-05-14T07:22:48;100088.00;;;16.97;55.24
29215;BME280;16252;49.816;7.964;2023-05-14T07:25:13;100089.75;;;17.06;55.13
29215;BME280;16252;49.816;7.964;2023-05-14T07:27:38;100100.38;;;17.25;54.97
29215;BME280;16252;49.816;7.964;2023-05-14T07:30:04;100063.78;;;17.13;55.56
29215;BME280;16252;49.816;7.964;2023-05-14T07:32:29;100093.72;;;17.38;55.44
29215;BME280;16252;49.816;7.964;2023-05-14T07:34:54;100068.56;;;17.45;55.45
29215;BME280;16252;49.816;7.964;2023-05-14T07:37:20;100068.13;;;17.58;55.40
29215;BME280;16252;49.816;7.964;2023-05-14T07:39:46;100074.38;;;17.85;54.83
29215;BME280;16252;49.816;7.964;2023-05-14T07:42:12;100042.59;;;17.87;54.51
29215;BME280;16252;49.816;7.964;2023-05-14T07:44:37;100064.84;;;18.15;54.18
29215;BME280;16252;49.816;7.964;2023-05-14T07:47:02;100085.06;;;18.45;54.04
29215;BME280;16252;49.816;7.964;2023-05-14T07:49:28;100067.81;;;18.62;54.03
29215;BME280;16252;49.816;7.964;2023-05-14T07:51:53;100074.50;;;18.93;54.37
29215;BME280;16252;49.816;7.964;2023-05-14T07:54:18;100070.56;;;19.28;54.37
29215;BME280;16252;49.816;7.964;2023-05-14T07:56:44;100054.72;;;19.56;54.46
29215;BME280;16252;49.816;7.964;2023-05-14T07:59:09;100068.91;;;20.22;53.88
29215;BME280;16252;49.816;7.964;2023-05-14T08:01:34;100070.81;;;20.76;54.65
29215;BME280;16252;49.816;7.964;2023-05-14T08:03:59;100073.09;;;21.48;53.39
29215;BME280;16252;49.816;7.964;2023-05-14T08:06:25;100056.63;;;22.16;52.94
29215;BME280;16252;49.816;7.964;2023-05-14T08:08:52;100061.31;;;23.01;51.64
29215;BME280;16252;49.816;7.964;2023-05-14T08:11:17;100059.59;;;23.78;49.78
29215;BME280;16252;49.816;7.964;2023-05-14T08:13:43;100065.63;;;24.56;48.50
29215;BME280;16252;49.816;7.964;2023-05-14T08:16:08;100038.97;;;25.25;47.57
29215;BME280;16252;49.816;7.964;2023-05-14T08:18:33;100073.50;;;26.24;45.98
29215;BME280;16252;49.816;7.964;2023-05-14T08:20:58;100051.88;;;26.79;45.18
29215;BME280;16252;49.816;7.964;2023-05-14T08:23:24;100052.59;;;27.50;43.90
29215;BME280;16252;49.816;7.964;2023-05-14T08:25:50;100045.09;;;28.13;43.35
29215;BME280;16252;49.816;7.964;2023-05-14T08:28:15;100051.88;;;28.77;41.02
29215;BME280;16252;49.816;7.964;2023-05-14T08:30:41;100040.13;;;29.35;40.62
29215;BME280;16252;49.816;7.964;2023-05-14T08:33:06;100040.19;;;29.88;39.74
29215;BME280;16252;49.816;7.964;2023-05-14T08:35:31;100035.56;;;30.29;38.58
29215;BME280;16252;49.816;7.964;2023-05-14T08:37:56;100034.34;;;30.82;38.04
29215;BME280;16252;49.816;7.964;2023-05-14T08:40:22;100028.75;;;31.27;37.69
29215;BME280;16252;49.816;7.964;2023-05-14T08:42:47;100032.19;;;31.73;37.57
29215;BME280;16252;49.816;7.964;2023-05-14T08:45:19;100044.75;;;32.25;36.52
29215;BME280;16252;49.816;7.964;2023-05-14T08:47:49;100045.00;;;32.73;36.08
29215;BME280;16252;49.816;7.964;2023-05-14T08:50:15;100039.88;;;33.19;35.28
29215;BME280;16252;49.816;7.964;2023-05-14T08:52:41;100030.44;;;33.57;33.67
29215;BME280;16252;49.816;7.964;2023-05-14T08:55:07;100016.78;;;33.93;32.97
29215;BME280;16252;49.816;7.964;2023-05-14T08:57:34;100019.94;;;34.27;33.11
29215;BME280;16252;49.816;7.964;2023-05-14T09:00:00;100015.59;;;34.62;32.73
29215;BME280;16252;49.816;7.964;2023-05-14T09:02:30;100014.78;;;34.98;31.90
29215;BME280;16252;49.816;7.964;2023-05-14T09:04:57;100026.72;;;35.34;30.97
29215;BME280;16252;49.816;7.964;2023-05-14T09:07:23;100009.78;;;35.20;30.02
29215;BME280;16252;49.816;7.964;2023-05-14T09:09:49;100030.91;;;35.31;30.48
29215;BME280;16252;49.816;7.964;2023-05-14T09:12:15;100007.28;;;35.24;29.44
29215;BME280;16252;49.816;7.964;2023-05-14T09:14:40;100016.97;;;35.42;29.43
29215;BME280;16252;49.816;7.964;2023-05-14T09:17:07;100016.66;;;35.53;29.12
29215;BME280;16252;49.816;7.964;2023-05-14T09:19:32;100015.81;;;35.73;28.55
29215;BME280;16252;49.816;7.964;2023-05-14T09:21:58;100003.81;;;35.78;28.38
29215;BME280;16252;49.816;7.964;2023-05-14T09:24:25;100009.00;;;36.00;28.59
29215;BME280;16252;49.816;7.964;2023-05-14T09:26:52;100006.22;;;36.00;27.77
29215;BME280;16252;49.816;7.964;2023-05-14T09:29:18;99989.66;;;35.64;26.99
29215;BME280;16252;49.816;7.964;2023-05-14T09:31:44;100013.66;;;35.24;26.96
29215;BME280;16252;49.816;7.964;2023-05-14T09:34:09;100001.69;;;34.52;27.56
29215;BME280;16252;49.816;7.964;2023-05-14T09:36:35;100015.66;;;33.99;27.60
29215;BME280;16252;49.816;7.964;2023-05-14T09:39:02;99986.50;;;33.39;27.79
29215;BME280;16252;49.816;7.964;2023-05-14T09:41:28;99987.25;;;33.29;28.37
29215;BME280;16252;49.816;7.964;2023-05-14T09:43:53;99977.56;;;33.32;28.63
29215;BME280;16252;49.816;7.964;2023-05-14T09:46:21;100003.94;;;33.82;28.08
29215;BME280;16252;49.816;7.964;2023-05-14T09:48:46;99998.25;;;34.14;28.05
29215;BME280;16252;49.816;7.964;2023-05-14T09:51:12;100001.63;;;34.31;27.61
29215;BME280;16252;49.816;7.964;2023-05-14T09:53:37;99984.66;;;34.23;26.73
29215;BME280;16252;49.816;7.964;2023-05-14T09:56:02;99963.69;;;33.79;26.51
29215;BME280;16252;49.816;7.964;2023-05-14T09:58:28;99977.41;;;33.49;26.64
29215;BME280;16252;49.816;7.964;2023-05-14T10:00:56;99999.09;;;33.14;26.71
29215;BME280;16252;49.816;7.964;2023-05-14T10:03:24;99987.69;;;32.46;27.18
29215;BME280;16252;49.816;7.964;2023-05-14T10:05:51;99977.56;;;31.86;27.42
29215;BME280;16252;49.816;7.964;2023-05-14T10:08:29;99962.47;;;31.33;28.21
29215;BME280;16252;49.816;7.964;2023-05-14T10:10:58;99937.88;;;30.63;28.42
29215;BME280;16252;49.816;7.964;2023-05-14T10:13:29;99955.94;;;30.37;28.16
29215;BME280;16252;49.816;7.964;2023-05-14T10:18:42;99973.22;;;29.64;29.54
29215;BME280;16252;49.816;7.964;2023-05-14T10:21:09;99993.72;;;29.44;29.83
29215;BME280;16252;49.816;7.964;2023-05-14T10:23:36;99963.16;;;28.99;29.82
29215;BME280;16252;49.816;7.964;2023-05-14T10:26:02;99960.63;;;28.73;29.83
29215;BME280;16252;49.816;7.964;2023-05-14T10:28:28;99975.34;;;28.67;30.66
29215;BME280;16252;49.816;7.964;2023-05-14T10:30:54;99973.41;;;28.56;30.97
29215;BME280;16252;49.816;7.964;2023-05-14T10:33:19;99978.56;;;28.52;30.17
29215;BME280;16252;49.816;7.964;2023-05-14T10:38:28;99976.47;;;28.90;31.42
29215;BME280;16252;49.816;7.964;2023-05-14T10:40:55;99957.53;;;28.93;30.98
29215;BME280;16252;49.816;7.964;2023-05-14T10:43:24;99946.75;;;29.04;30.56
29215;BME280;16252;49.816;7.964;2023-05-14T10:45:50;99966.44;;;29.19;31.03
29215;BME280;16252;49.816;7.964;2023-05-14T10:48:16;99961.66;;;29.14;30.66
29215;BME280;16252;49.816;7.964;2023-05-14T10:50:42;99942.94;;;29.05;30.87
29215;BME280;16252;49.816;7.964;2023-05-14T10:53:11;99946.63;;;28.99;30.83
29215;BME280;16252;49.816;7.964;2023-05-14T10:55:37;99956.72;;;28.93;30.55
29215;BME280;16252;49.816;7.964;2023-05-14T10:58:03;99947.84;;;28.79;30.49
29215;BME280;16252;49.816;7.964;2023-05-14T11:00:28;99898.09;;;28.39;31.24
29215;BME280;16252;49.816;7.964;2023-05-14T11:02:55;99903.59;;;28.39;30.64
29215;BME280;16252;49.816;7.964;2023-05-14T11:05:21;99951.03;;;28.52;30.62
29215;BME280;16252;49.816;7.964;2023-05-14T11:07:48;99916.50;;;28.26;31.02
29215;BME280;16252;49.816;7.964;2023-05-14T11:10:15;99947.13;;;28.30;31.20
29215;BME280;16252;49.816;7.964;2023-05-14T11:12:46;99932.13;;;28.14;31.02
29215;BME280;16252;49.816;7.964;2023-05-14T11:15:13;99960.25;;;28.16;31.68
29215;BME280;16252;49.816;7.964;2023-05-14T11:17:40;99947.38;;;27.98;31.40
29215;BME280;16252;49.816;7.964;2023-05-14T11:20:07;99922.22;;;27.83;31.27
29215;BME280;16252;49.816;7.964;2023-05-14T11:22:33;99925.63;;;27.78;31.43
29215;BME280;16252;49.816;7.964;2023-05-14T11:24:59;99929.53;;;27.71;31.71
29215;BME280;16252;49.816;7.964;2023-05-14T11:27:24;99910.44;;;27.57;31.90
29215;BME280;16252;49.816;7.964;2023-05-14T11:29:51;99946.16;;;27.76;32.03
29215;BME280;16252;49.816;7.964;2023-05-14T11:32:18;99884.69;;;27.40;31.78
29215;BME280;16252;49.816;7.964;2023-05-14T11:34:44;99943.63;;;27.74;31.90
29215;BME280;16252;49.816;7.964;2023-05-14T11:37:11;99925.19;;;27.63;31.96
29215;BME280;16252;49.816;7.964;2023-05-14T11:39:38;99932.13;;;27.65;32.45
29215;BME280;16252;49.816;7.964;2023-05-14T11:42:09;99904.94;;;27.57;32.16
29215;BME280;16252;49.816;7.964;2023-05-14T11:44:37;99926.91;;;27.76;32.23
29215;BME280;16252;49.816;7.964;2023-05-14T11:47:02;99932.41;;;27.76;32.08
29215;BME280;16252;49.816;7.964;2023-05-14T11:49:29;99926.31;;;27.74;32.05
29215;BME280;16252;49.816;7.964;2023-05-14T11:52:03;99926.31;;;27.74;32.30
29215;BME280;16252;49.816;7.964;2023-05-14T11:54:29;99911.28;;;27.58;32.19
29215;BME280;16252;49.816;7.964;2023-05-14T11:56:55;99932.75;;;27.67;31.72
29215;BME280;16252;49.816;7.964;2023-05-14T11:59:23;99922.44;;;27.63;31.90
29215;BME280;16252;49.816;7.964;2023-05-14T12:01:48;99934.19;;;27.70;32.56
29215;BME280;16252;49.816;7.964;2023-05-14T12:04:14;99870.19;;;27.33;31.43
29215;BME280;16252;49.816;7.964;2023-05-14T12:06:39;99903.06;;;27.58;32.08
29215;BME280;16252;49.816;7.964;2023-05-14T12:09:05;99925.31;;;27.68;32.01
29215;BME280;16252;49.816;7.964;2023-05-14T12:11:31;99918.38;;;27.65;32.12
29215;BME280;16252;49.816;7.964;2023-05-14T12:13:58;99908.16;;;27.54;31.77
29215;BME280;16252;49.816;7.964;2023-05-14T12:16:29;99910.81;;;27.61;31.64
29215;BME280;16252;49.816;7.964;2023-05-14T12:18:58;99904.22;;;27.50;31.86
29215;BME280;16252;49.816;7.964;2023-05-14T12:21:25;99893.28;;;27.43;31.79
29215;BME280;16252;49.816;7.964;2023-05-14T12:23:57;99902.03;;;27.52;32.28
29215;BME280;16252;49.816;7.964;2023-05-14T12:26:24;99881.78;;;27.35;32.21
29215;BME280;16252;49.816;7.964;2023-05-14T12:28:58;99890.06;;;27.47;31.97
29215;BME280;16252;49.816;7.964;2023-05-14T12:31:29;99891.00;;;27.40;32.04
29215;BME280;16252;49.816;7.964;2023-05-14T12:33:54;99877.94;;;27.54;32.41
29215;BME280;16252;49.816;7.964;2023-05-14T12:36:19;99850.59;;;27.04;31.92
29215;BME280;16252;49.816;7.964;2023-05-14T12:38:45;99854.50;;;26.96;31.64
29215;BME280;16252;49.816;7.964;2023-05-14T12:41:10;99861.28;;;26.94;31.27
29215;BME280;16252;49.816;7.964;2023-05-14T12:43:36;99853.19;;;26.80;31.69
29215;BME280;16252;49.816;7.964;2023-05-14T12:46:01;99853.28;;;26.74;31.95
29215;BME280;16252;49.816;7.964;2023-05-14T12:48:26;99853.72;;;26.71;31.91
29215;BME280;16252;49.816;7.964;2023-05-14T12:50:51;99844.50;;;26.65;31.93
29215;BME280;16252;49.816;7.964;2023-05-14T12:53:17;99836.09;;;26.60;32.21
29215;BME280;16252;49.816;7.964;2023-05-14T12:55:42;99846.41;;;26.65;32.55